Happy Valentine's Day! 

Flight Track Log - Related Links

Times and Time Zones

All times are in EDT time to prevent confusion due to time zone crossing. See the N25572 flight status page for this flight to view local times or setup timezone preferences in your user account.


Time Position Orientation Groundspeed Altitude Reporting Facility
EDT Latitude Longitude Course Direction KTS MPH feet Rate Location/Type
Thu 07:45:55 PM 29.1844 -81.0469 38° Northeast 67 77 400  Level Jacksonville Center
Thu 07:46:31 PM 29.1925 -81.0397 38° Northeast 67 77 600 433 Climbing Jacksonville Center
Thu 07:47:32 PM 29.2133 -81.0344 12° North 72 83 1,100 446 Climbing Jacksonville Center
Thu 07:48:32 PM 29.2322 -81.0294 13° North 68 78 1,500 397 Climbing Jacksonville Center
Thu 07:49:33 PM 29.2469 -81.0433 321° Northwest 75 86 1,900 248 Climbing Jacksonville Center
Thu 07:50:33 PM 29.2514 -81.0669 282° West 90 104 2,000 50 Climbing Jacksonville Center
Thu 07:51:34 PM 29.2539 -81.0981 275° West 95 109 2,000 -197 Level Jacksonville Center
Thu 07:52:35 PM 29.2461 -81.1267 253° West 95 109 1,600 -149 Descending Jacksonville Center
Thu 07:53:35 PM 29.2339 -81.1531 242° Southwest 91 105 1,700 50 Climbing Jacksonville Center
Thu 07:54:36 PM 29.2153 -81.1725 222° Southwest 92 106 1,700  Level Jacksonville Center
Thu 07:55:37 PM 29.2008 -81.1917 229° Southwest 90 104 1,700 -99 Level Jacksonville Center
Thu 07:56:37 PM 29.1761 -81.2136 218° Southwest 90 104 1,500 -298 Descending Jacksonville Center
Thu 07:57:38 PM 29.1575 -81.2233 205° Southwest 91 105 1,100 -248 Descending Jacksonville Center
Thu 07:58:38 PM 29.1433 -81.2472 236° Southwest 88 101 1,000 99 Descending Jacksonville Center
Thu 07:59:39 PM 29.1267 -81.2642 222° Southwest 84 97 1,300 246 Climbing Jacksonville Center
Thu 08:00:40 PM 29.1058 -81.2717 197° South 85 98 1,500 -149 Climbing Jacksonville Center
Thu 08:01:40 PM 29.0811 -81.2889 211° Southwest 96 110 1,000 -298 Descending Jacksonville Center
Thu 08:02:41 PM 29.0581 -81.2892 181° South 82 94 900 149 Descending Jacksonville Center
Thu 08:03:41 PM 29.0542 -81.3131 259° West 82 94 1,300 397 Climbing Jacksonville Center
Thu 08:04:42 PM 29.0608 -81.3367 288° West 76 87 1,700 393 Climbing Jacksonville Center
Thu 08:05:43 PM 29.0694 -81.3556 298° West 78 90 2,100 149 Climbing Jacksonville Center
Thu 08:06:43 PM 29.0944 -81.3575 356° North 92 106 2,000 -99 Descending Jacksonville Center
Thu 08:07:44 PM 29.1194 -81.3594 356° North 91 105 1,900  Descending Jacksonville Center
Thu 08:08:45 PM 29.1339 -81.3403 49° Northeast 84 97 2,000 50 Climbing Jacksonville Center
Thu 08:09:45 PM 29.1317 -81.3142 96° East 77 89 2,000  Level Jacksonville Center
Thu 08:10:46 PM 29.1167 -81.2978 136° Southeast 77 89 2,000 -99 Level Jacksonville Center
Thu 08:11:46 PM 29.1061 -81.2764 119° Southeast 80 92 1,800 -248 Descending Jacksonville Center
Thu 08:12:47 PM 29.0975 -81.2553 115° Southeast 74 85 1,500 -49 Descending Jacksonville Center
Thu 08:13:48 PM 29.1056 -81.2336 67° East 79 91 1,700 99 Climbing Jacksonville Center
Thu 08:14:48 PM 29.1178 -81.2097 60° Northeast 87 100 1,700 -50 Level Jacksonville Center
Thu 08:15:49 PM 29.1300 -81.1858 60° Northeast 83 96 1,600 -99 Descending Jacksonville Center
Thu 08:16:49 PM 29.1381 -81.1619 69° East 82 94 1,500 -198 Descending Jacksonville Center
Thu 08:17:50 PM 29.1461 -81.1403 67° East 75 86 1,200 -344 Descending Jacksonville Center
Thu 08:18:51 PM 29.1561 -81.1164 64° Northeast 82 94 800 -397 Descending Jacksonville Center
Thu 08:19:51 PM 29.1642 -81.0925 69° East 77 89 400 -400 Descending Jacksonville Center
Thu 08:21:00 PM 29.1660 -81.0615 86° East  Level FlightAware Approximate

Login

Don't have an account? Register now (free) for customized features, flight alerts, and more!